createdAt,value
2018-01-01T00:02:10.183Z,69.11
2018-01-01T00:04:36.558Z,69.43
2018-01-01T00:07:02.999Z,69.32
2018-01-01T00:09:29.415Z,69.83
2018-01-01T00:11:55.763Z,69.78
2018-01-01T00:14:22.177Z,69.73
2018-01-01T00:16:48.598Z,69.81
2018-01-01T00:19:14.988Z,69.22
2018-01-01T00:21:41.374Z,69.67
2018-01-01T00:24:07.803Z,69.76
2018-01-01T00:26:34.196Z,70.01
2018-01-01T00:29:00.582Z,70.18
2018-01-01T00:31:27.019Z,69.87
2018-01-01T00:33:53.397Z,70.07
2018-01-01T00:36:19.831Z,70.22
2018-01-01T00:38:46.286Z,69.94
2018-01-01T00:41:12.703Z,69.70
2018-01-01T00:43:39.166Z,69.62
2018-01-01T00:46:05.541Z,69.70
2018-01-01T00:48:31.935Z,69.91
2018-01-01T00:50:58.341Z,69.37
2018-01-01T00:53:24.718Z,70.03
2018-01-01T00:55:51.068Z,70.08
2018-01-01T00:58:17.451Z,69.89
2018-01-01T01:00:43.912Z,70.38
2018-01-01T01:03:10.319Z,70.19
2018-01-01T01:05:36.734Z,70.38
2018-01-01T01:08:03.163Z,70.44
2018-01-01T01:10:29.596Z,69.83
2018-01-01T01:12:56.027Z,69.43
2018-01-01T01:15:22.479Z,69.38
2018-01-01T01:17:48.867Z,69.59
2018-01-01T01:20:15.271Z,70.04
2018-01-01T01:22:41.716Z,70.08
2018-01-01T01:25:08.117Z,69.73
2018-01-01T01:27:34.503Z,69.55
2018-01-01T01:30:00.928Z,70.18
2018-01-01T01:32:27.314Z,70.29
2018-01-01T01:34:53.691Z,69.84
2018-01-01T01:37:20.167Z,69.80
2018-01-01T01:39:46.562Z,69.53
2018-01-01T01:42:12.975Z,69.90
2018-01-01T01:44:39.419Z,69.14
2018-01-01T01:47:05.859Z,69.68
2018-01-01T01:49:32.270Z,69.31
2018-01-01T01:51:58.783Z,69.22
2018-01-01T01:54:25.191Z,69.68
2018-01-01T01:56:51.583Z,69.12
2018-01-01T01:59:18.023Z,69.96
2018-01-01T02:01:44.434Z,69.66
2018-01-01T02:04:10.831Z,70.49
2018-01-01T02:06:37.284Z,70.10
2018-01-01T02:09:03.812Z,69.94
2018-01-01T02:11:30.217Z,69.72
2018-01-01T02:13:56.611Z,70.68
2018-01-01T02:16:23.020Z,70.46
2018-01-01T02:18:49.396Z,70.83
2018-01-01T02:21:15.850Z,71.12
2018-01-01T02:23:42.215Z,70.37
2018-01-01T02:26:08.587Z,70.60
2018-01-01T02:28:35.046Z,70.19
2018-01-01T02:31:01.450Z,70.47
2018-01-01T02:33:27.913Z,70.61
2018-01-01T02:35:54.394Z,70.21
2018-01-01T02:38:20.839Z,69.68
2018-01-01T02:40:47.243Z,70.51
2018-01-01T02:43:13.719Z,70.40
2018-01-01T02:45:40.099Z,69.99
2018-01-01T02:48:06.480Z,70.56
2018-01-01T02:50:32.898Z,70.77
2018-01-01T02:52:59.323Z,71.85
2018-01-01T02:55:25.760Z,70.95
2018-01-01T02:57:52.223Z,70.64
2018-01-01T03:00:18.591Z,70.27
2018-01-01T03:02:44.990Z,69.73
2018-01-01T03:05:11.528Z,69.93
2018-01-01T03:07:37.985Z,69.84
2018-01-01T03:10:04.387Z,69.96
2018-01-01T03:12:30.843Z,69.50
2018-01-01T03:14:57.257Z,69.56
2018-01-01T03:17:23.791Z,69.59
2018-01-01T03:19:50.255Z,69.49
2018-01-01T03:22:16.659Z,70.26
2018-01-01T03:24:43.074Z,69.92
2018-01-01T03:27:09.524Z,70.51
2018-01-01T03:29:35.911Z,70.43
2018-01-01T03:32:02.343Z,70.77
2018-01-01T03:34:28.830Z,70.15
2018-01-01T03:36:55.203Z,70.70
2018-01-01T03:39:21.579Z,70.50
2018-01-01T03:41:48.057Z,69.83
2018-01-01T03:44:14.443Z,70.20
2018-01-01T03:46:40.815Z,70.55
2018-01-01T03:49:07.247Z,71.40
2018-01-01T03:51:33.627Z,71.21
2018-01-01T03:54:00.035Z,71.51
2018-01-01T03:56:26.480Z,71.23
2018-01-01T03:58:52.878Z,70.97
2018-01-01T04:01:19.327Z,70.99
2018-01-01T04:03:45.712Z,71.53
2018-01-01T04:06:12.055Z,71.46
2018-01-01T04:08:38.394Z,71.76
2018-01-01T04:11:04.807Z,71.86
2018-01-01T04:13:31.192Z,71.74
2018-01-01T04:15:57.620Z,71.51
2018-01-01T04:18:24.107Z,71.32
2018-01-01T04:20:50.512Z,71.21
2018-01-01T04:23:16.928Z,70.74
2018-01-01T04:25:43.403Z,70.80
2018-01-01T04:28:09.820Z,71.38
2018-01-01T04:30:36.211Z,72.04
2018-01-01T04:33:02.648Z,71.06
2018-01-01T04:35:29.041Z,71.06
2018-01-01T04:37:55.443Z,71.07
2018-01-01T04:40:21.879Z,70.97
2018-01-01T04:42:48.331Z,71.69
2018-01-01T04:45:14.674Z,71.94
2018-01-01T04:47:41.167Z,71.30
2018-01-01T04:50:07.639Z,71.06
2018-01-01T04:52:34.108Z,70.80
2018-01-01T04:55:00.511Z,70.80
2018-01-01T04:57:26.918Z,71.70
2018-01-01T04:59:53.318Z,71.81
2018-01-01T05:02:19.743Z,71.69
2018-01-01T05:04:46.135Z,71.37
2018-01-01T05:07:12.557Z,72.02
2018-01-01T05:09:38.999Z,71.88
2018-01-01T05:12:05.396Z,71.71
2018-01-01T05:14:31.843Z,71.21
2018-01-01T05:16:58.303Z,70.99
2018-01-01T05:19:24.707Z,70.98
2018-01-01T05:21:51.156Z,71.30
2018-01-01T05:24:17.691Z,71.57
2018-01-01T05:26:44.100Z,71.40
2018-01-01T05:29:10.542Z,71.27
2018-01-01T05:31:36.942Z,71.47
2018-01-01T05:34:03.328Z,71.50
2018-01-01T05:36:29.703Z,71.88
2018-01-01T05:38:56.122Z,72.63
2018-01-01T05:41:22.479Z,72.00
2018-01-01T05:43:48.929Z,71.86
2018-01-01T05:46:15.398Z,71.80
2018-01-01T05:48:42.056Z,71.36
2018-01-01T05:51:08.443Z,71.66
2018-01-01T05:53:34.926Z,70.44
2018-01-01T05:56:01.296Z,70.52
2018-01-01T05:58:27.695Z,70.84
2018-01-01T06:00:54.104Z,70.88
2018-01-01T06:03:20.477Z,70.62
2018-01-01T06:05:46.951Z,70.69
2018-01-01T06:08:13.392Z,69.81
2018-01-01T06:10:39.764Z,70.05
2018-01-01T06:13:06.140Z,70.15
2018-01-01T06:15:32.622Z,70.65
2018-01-01T06:17:59.016Z,70.75
2018-01-01T06:20:25.472Z,71.31
2018-01-01T06:22:51.875Z,71.03
2018-01-01T06:25:18.277Z,70.68
2018-01-01T06:27:44.712Z,70.85
2018-01-01T06:30:11.246Z,70.57
2018-01-01T06:32:37.657Z,71.25
2018-01-01T06:35:04.006Z,71.29
2018-01-01T06:37:30.645Z,71.13
2018-01-01T06:39:57.159Z,70.67
2018-01-01T06:42:23.523Z,71.29
2018-01-01T06:44:49.980Z,71.07
2018-01-01T06:47:16.356Z,71.51
2018-01-01T06:49:42.791Z,71.41
2018-01-01T06:52:09.239Z,71.03
2018-01-01T06:54:35.607Z,70.80
2018-01-01T06:57:02.085Z,70.71
2018-01-01T06:59:28.560Z,70.74
2018-01-01T07:01:54.891Z,70.50
2018-01-01T07:04:21.319Z,70.22
2018-01-01T07:06:47.800Z,70.02
2018-01-01T07:09:14.154Z,69.89
2018-01-01T07:11:40.528Z,69.79
2018-01-01T07:14:06.973Z,69.59
2018-01-01T07:16:33.328Z,69.61
2018-01-01T07:18:59.827Z,69.81
2018-01-01T07:21:26.271Z,69.58
2018-01-01T07:23:52.650Z,69.75
2018-01-01T07:26:19.067Z,69.56
2018-01-01T07:28:45.495Z,69.74
2018-01-01T07:31:11.919Z,70.01
2018-01-01T07:33:38.323Z,70.34
2018-01-01T07:36:04.869Z,70.17
2018-01-01T07:38:31.251Z,70.05
2018-01-01T07:40:57.655Z,69.79
2018-01-01T07:43:24.084Z,69.60
2018-01-01T07:45:50.477Z,69.47
2018-01-01T07:48:17.393Z,69.98
2018-01-01T07:50:43.868Z,71.50
2018-01-01T07:53:10.208Z,69.93
2018-01-01T07:55:36.630Z,71.96
2018-01-01T07:58:03.029Z,71.82
2018-01-01T08:00:29.452Z,72.26
2018-01-01T08:02:55.921Z,72.29
2018-01-01T08:05:22.347Z,72.01
2018-01-01T08:07:48.701Z,71.28
2018-01-01T08:10:15.035Z,71.50
2018-01-01T08:12:41.434Z,71.12
2018-01-01T08:15:07.855Z,69.07
2018-01-01T08:17:34.239Z,67.91
2018-01-01T08:20:00.683Z,69.57
2018-01-01T08:22:27.087Z,69.04
2018-01-01T08:24:53.484Z,69.29
2018-01-01T08:27:19.884Z,68.47
2018-01-01T08:29:46.277Z,68.81
2018-01-01T08:32:12.680Z,68.69
2018-01-01T08:34:39.176Z,68.67
2018-01-01T08:37:05.595Z,68.10
2018-01-01T08:39:31.989Z,66.94
2018-01-01T08:41:58.420Z,67.62
2018-01-01T08:44:24.807Z,67.14
2018-01-01T08:46:51.202Z,66.96
2018-01-01T08:49:17.615Z,66.90
2018-01-01T08:51:44.029Z,66.90
2018-01-01T08:54:10.490Z,66.89
2018-01-01T08:56:36.987Z,66.59
2018-01-01T08:59:03.320Z,66.87
2018-01-01T09:01:29.723Z,66.83
2018-01-01T09:03:56.129Z,66.86
2018-01-01T09:06:22.595Z,66.71
2018-01-01T09:08:48.995Z,66.75
2018-01-01T09:11:15.436Z,65.98
2018-01-01T09:13:41.842Z,65.96
2018-01-01T09:16:08.207Z,67.65
2018-01-01T09:18:34.615Z,67.09
2018-01-01T09:21:01.011Z,67.27
2018-01-01T09:23:27.391Z,64.94
2018-01-01T09:25:53.819Z,65.24
2018-01-01T09:28:20.218Z,67.35
2018-01-01T09:30:46.587Z,66.64
2018-01-01T09:33:13.023Z,66.37
2018-01-01T09:35:39.439Z,64.64
2018-01-01T09:38:05.787Z,63.90
2018-01-01T09:40:32.178Z,63.64
2018-01-01T09:42:58.551Z,63.78
2018-01-01T09:45:24.987Z,63.89
2018-01-01T09:47:51.463Z,65.09
2018-01-01T09:50:17.828Z,67.47
2018-01-01T09:52:44.207Z,65.67
2018-01-01T09:55:10.667Z,65.41
2018-01-01T09:57:37.097Z,63.47
2018-01-01T10:00:03.568Z,63.07
2018-01-01T10:02:30.011Z,64.30
2018-01-01T10:04:56.451Z,62.15
2018-01-01T10:07:22.870Z,64.25
2018-01-01T10:09:49.247Z,62.63
2018-01-01T10:12:15.623Z,61.82
2018-01-01T10:14:42.019Z,61.02
2018-01-01T10:17:08.465Z,60.54
2018-01-01T10:19:34.847Z,61.19
2018-01-01T10:22:01.360Z,61.45
2018-01-01T10:24:27.799Z,63.05
2018-01-01T10:26:54.195Z,62.95
2018-01-01T10:29:20.721Z,63.53
2018-01-01T10:31:47.152Z,62.02
2018-01-01T10:34:13.546Z,61.18
2018-01-01T10:36:39.979Z,61.23
2018-01-01T10:39:06.356Z,60.82
2018-01-01T10:41:32.772Z,61.68
2018-01-01T10:43:59.149Z,60.90
2018-01-01T10:46:25.567Z,58.88
2018-01-01T10:48:51.991Z,59.35
2018-01-01T10:51:18.452Z,59.59
2018-01-01T10:53:44.899Z,59.03
2018-01-01T10:56:11.288Z,59.97
2018-01-01T10:58:37.659Z,59.37
2018-01-01T11:01:04.128Z,58.34
2018-01-01T11:03:30.536Z,59.60
2018-01-01T11:05:56.930Z,60.30
2018-01-01T11:08:23.363Z,60.27
2018-01-01T11:10:49.850Z,59.68
2018-01-01T11:13:16.238Z,56.97
2018-01-01T11:15:42.673Z,57.59
2018-01-01T11:18:09.063Z,57.83
2018-01-01T11:20:35.499Z,58.14
2018-01-01T11:23:01.948Z,58.92
2018-01-01T11:25:28.470Z,60.18
2018-01-01T11:27:54.880Z,59.90
2018-01-01T11:30:21.372Z,58.91
2018-01-01T11:32:47.739Z,58.35
2018-01-01T11:35:14.160Z,58.33
2018-01-01T11:37:40.563Z,58.32
2018-01-01T11:40:06.944Z,58.69
2018-01-01T11:42:33.310Z,58.89
2018-01-01T11:44:59.796Z,60.02
2018-01-01T11:47:26.232Z,58.38
2018-01-01T11:49:52.628Z,57.83
2018-01-01T11:52:19.041Z,57.89
2018-01-01T11:54:45.427Z,57.20
2018-01-01T11:57:11.848Z,57.55
2018-01-01T11:59:38.259Z,57.07
2018-01-01T12:02:04.651Z,57.68
2018-01-01T12:04:30.987Z,59.66
2018-01-01T12:06:57.423Z,60.05
2018-01-01T12:09:30.973Z,59.43
2018-01-01T12:11:57.364Z,58.95
2018-01-01T12:14:23.796Z,60.32
2018-01-01T12:16:50.192Z,60.04
2018-01-01T12:19:16.660Z,60.42
2018-01-01T12:21:43.059Z,59.66
2018-01-01T12:24:15.649Z,60.15
2018-01-01T12:26:43.211Z,59.98
2018-01-01T12:29:09.611Z,59.26
2018-01-01T12:31:36.163Z,60.38
2018-01-01T12:34:02.587Z,61.15
2018-01-01T12:36:28.958Z,61.19
2018-01-01T12:38:55.347Z,60.12
2018-01-01T12:41:21.725Z,59.72
2018-01-01T12:43:48.139Z,59.50
2018-01-01T12:46:14.563Z,60.99
2018-01-01T12:48:40.970Z,60.55
2018-01-01T12:51:07.334Z,61.07
2018-01-01T12:53:33.736Z,61.61
2018-01-01T12:56:00.243Z,62.00
2018-01-01T12:58:26.643Z,61.16
2018-01-01T13:00:53.035Z,61.17
2018-01-01T13:03:19.471Z,60.11
2018-01-01T13:05:45.903Z,60.78
2018-01-01T13:08:12.259Z,60.69
2018-01-01T13:10:38.699Z,61.16
2018-01-01T13:13:05.098Z,61.51
2018-01-01T13:15:31.591Z,61.75
2018-01-01T13:17:57.999Z,61.58
2018-01-01T13:20:24.356Z,61.57
2018-01-01T13:22:50.839Z,61.99
2018-01-01T13:25:17.291Z,62.16
2018-01-01T13:27:43.677Z,60.95
2018-01-01T13:30:10.089Z,61.65
2018-01-01T13:32:36.545Z,61.60
2018-01-01T13:35:02.957Z,60.50
2018-01-01T13:37:29.387Z,60.44
2018-01-01T13:39:55.884Z,61.66
2018-01-01T13:42:22.288Z,60.57
2018-01-01T13:44:48.632Z,61.30
2018-01-01T13:47:15.144Z,61.18
2018-01-01T13:49:41.544Z,61.56
2018-01-01T13:52:08.009Z,60.88
2018-01-01T13:54:34.503Z,61.94
2018-01-01T13:57:00.917Z,61.74
2018-01-01T13:59:27.331Z,62.44
2018-01-01T14:01:53.766Z,62.53
2018-01-01T14:04:20.199Z,61.90
2018-01-01T14:06:46.547Z,62.30
2018-01-01T14:09:12.990Z,62.23
2018-01-01T14:11:39.344Z,62.24
2018-01-01T14:14:05.742Z,62.39
2018-01-01T14:16:32.135Z,61.73
2018-01-01T14:18:58.471Z,62.58
2018-01-01T14:21:24.981Z,62.69
2018-01-01T14:23:51.439Z,62.88
2018-01-01T14:26:17.844Z,63.23
2018-01-01T14:28:44.251Z,63.91
2018-01-01T14:31:10.723Z,63.49
2018-01-01T14:33:37.147Z,62.91
2018-01-01T14:36:03.559Z,63.67
2018-01-01T14:38:29.991Z,63.55
2018-01-01T14:40:56.394Z,63.69
2018-01-01T14:43:22.826Z,63.18
2018-01-01T14:45:49.312Z,64.38
2018-01-01T14:48:15.772Z,63.80
2018-01-01T14:50:42.155Z,63.85
2018-01-01T14:53:10.656Z,63.69
2018-01-01T14:55:37.072Z,63.42
2018-01-01T14:58:03.439Z,64.46
2018-01-01T15:00:29.879Z,64.96
2018-01-01T15:02:56.398Z,64.43
2018-01-01T15:05:22.770Z,64.91
2018-01-01T15:07:49.189Z,65.61
2018-01-01T15:10:15.638Z,65.44
2018-01-01T15:12:42.039Z,65.97
2018-01-01T15:15:08.477Z,65.46
2018-01-01T15:17:35.000Z,65.41
2018-01-01T15:20:01.602Z,66.24
2018-01-01T15:22:28.200Z,65.94
2018-01-01T15:24:54.604Z,65.97
2018-01-01T15:27:21.128Z,66.81
2018-01-01T15:29:47.572Z,66.28
2018-01-01T15:32:14.127Z,66.54
2018-01-01T15:34:48.926Z,67.08
2018-01-01T15:37:15.697Z,68.04
2018-01-01T15:39:42.181Z,67.91
2018-01-01T15:42:09.380Z,67.76
2018-01-01T15:44:35.815Z,68.01
2018-01-01T15:47:02.228Z,68.22
2018-01-01T15:49:28.663Z,68.31
2018-01-01T15:51:55.220Z,68.39
2018-01-01T15:54:21.603Z,68.38
2018-01-01T15:56:48.040Z,68.42
2018-01-01T15:59:14.430Z,67.83
2018-01-01T16:01:40.823Z,68.21
2018-01-01T16:04:07.235Z,68.37
2018-01-01T16:06:33.641Z,68.38
2018-01-01T16:09:00.026Z,68.50
2018-01-01T16:11:26.468Z,68.68
2018-01-01T16:13:52.872Z,68.75
2018-01-01T16:16:19.276Z,68.78
2018-01-01T16:18:46.575Z,68.87
2018-01-01T16:21:13.031Z,68.87
2018-01-01T16:23:39.395Z,68.98
2018-01-01T16:26:05.959Z,69.11
2018-01-01T16:28:32.566Z,69.09
2018-01-01T16:30:58.997Z,69.09
2018-01-01T16:33:25.468Z,69.14
2018-01-01T16:35:51.827Z,69.22
2018-01-01T16:38:18.223Z,69.31
2018-01-01T16:40:44.704Z,69.24
2018-01-01T16:43:11.184Z,69.32
2018-01-01T16:45:38.539Z,69.43
2018-01-01T16:48:05.100Z,69.47
2018-01-01T16:50:31.516Z,69.51
2018-01-01T16:52:57.951Z,69.67
2018-01-01T16:55:24.413Z,69.61
2018-01-01T16:57:50.881Z,69.65
2018-01-01T17:00:17.275Z,69.77
2018-01-01T17:02:43.716Z,69.71
2018-01-01T17:05:10.131Z,69.74
2018-01-01T17:07:36.656Z,69.77
2018-01-01T17:10:03.144Z,69.83
2018-01-01T17:12:29.556Z,69.94
2018-01-01T17:14:56.004Z,70.03
2018-01-01T17:17:22.495Z,70.07
2018-01-01T17:19:48.907Z,70.19
2018-01-01T17:22:15.396Z,70.11
2018-01-01T17:24:41.820Z,70.04
2018-01-01T17:27:08.281Z,70.13
2018-01-01T17:29:34.716Z,70.29
2018-01-01T17:32:01.200Z,70.33
2018-01-01T17:34:27.845Z,70.46
2018-01-01T17:36:54.302Z,70.55
2018-01-01T17:39:20.783Z,70.53
2018-01-01T17:41:47.232Z,70.78
2018-01-01T17:44:13.611Z,70.71
2018-01-01T17:46:40.052Z,70.97
2018-01-01T17:49:06.457Z,70.93
2018-01-01T17:51:33.219Z,71.12
2018-01-01T17:53:59.692Z,71.40
2018-01-01T17:56:26.133Z,71.50
2018-01-01T17:58:52.551Z,71.50
2018-01-01T18:01:19.048Z,71.72
2018-01-01T18:03:48.731Z,71.93
2018-01-01T18:06:15.130Z,71.91
2018-01-01T18:08:41.616Z,72.02
2018-01-01T18:11:07.995Z,71.79
2018-01-01T18:13:34.419Z,72.01
2018-01-01T18:16:00.823Z,71.91
2018-01-01T18:18:27.267Z,71.85
2018-01-01T18:20:53.639Z,71.44
2018-01-01T18:23:20.036Z,71.92
2018-01-01T18:25:46.412Z,72.21
2018-01-01T18:28:12.839Z,72.36
2018-01-01T18:30:39.267Z,72.49
2018-01-01T18:33:05.663Z,71.91
2018-01-01T18:35:32.040Z,71.78
2018-01-01T18:37:58.479Z,71.81
2018-01-01T18:40:24.835Z,71.73
2018-01-01T18:42:51.241Z,71.70
2018-01-01T18:45:17.699Z,71.63
2018-01-01T18:47:44.135Z,71.25
2018-01-01T18:50:10.491Z,71.63
2018-01-01T18:52:36.928Z,71.68
2018-01-01T18:55:03.319Z,71.50
2018-01-01T18:57:29.964Z,71.45
2018-01-01T18:59:56.354Z,71.99
2018-01-01T19:02:22.748Z,71.28
2018-01-01T19:04:49.244Z,71.78
2018-01-01T19:07:15.719Z,71.80
2018-01-01T19:09:42.143Z,71.55
2018-01-01T19:12:08.662Z,71.78
2018-01-01T19:14:35.118Z,71.43
2018-01-01T19:17:01.624Z,71.77
2018-01-01T19:19:28.080Z,72.66
2018-01-01T19:21:54.504Z,71.29
2018-01-01T19:24:20.918Z,70.99
2018-01-01T19:26:47.355Z,71.39
2018-01-01T19:29:13.784Z,70.94
2018-01-01T19:31:40.308Z,71.29
2018-01-01T19:34:06.767Z,71.63
2018-01-01T19:36:33.188Z,71.03
2018-01-01T19:38:59.559Z,70.96
2018-01-01T19:41:25.996Z,70.79
2018-01-01T19:43:52.468Z,70.10
2018-01-01T19:46:18.852Z,70.70
2018-01-01T19:48:45.214Z,70.72
2018-01-01T19:51:11.732Z,70.63
2018-01-01T19:53:38.103Z,70.90
2018-01-01T19:56:04.532Z,70.84
2018-01-01T19:58:30.967Z,71.38
2018-01-01T20:00:57.359Z,71.08
2018-01-01T20:03:23.747Z,70.61
2018-01-01T20:05:50.243Z,70.59
2018-01-01T20:08:16.632Z,70.39
2018-01-01T20:10:43.031Z,70.50
2018-01-01T20:13:09.487Z,70.58
2018-01-01T20:15:35.816Z,71.30
2018-01-01T20:18:02.264Z,71.19
2018-01-01T20:20:28.670Z,71.35
2018-01-01T20:22:55.051Z,72.11
2018-01-01T20:25:21.439Z,71.58
2018-01-01T20:27:48.007Z,71.38
2018-01-01T20:30:14.353Z,71.66
2018-01-01T20:32:40.720Z,71.34
2018-01-01T20:35:07.148Z,71.15
2018-01-01T20:37:33.508Z,70.98
2018-01-01T20:39:59.919Z,71.05
2018-01-01T20:42:26.379Z,71.37
2018-01-01T20:44:52.759Z,71.30
2018-01-01T20:47:19.179Z,71.02
2018-01-01T20:49:45.596Z,71.30
2018-01-01T20:52:12.094Z,71.12
2018-01-01T20:54:38.530Z,71.38
2018-01-01T20:57:05.002Z,71.71
2018-01-01T20:59:31.371Z,71.65
2018-01-01T21:01:57.793Z,71.57
2018-01-01T21:04:24.257Z,71.90
2018-01-01T21:06:50.703Z,72.23
2018-01-01T21:09:17.080Z,72.00
2018-01-01T21:11:43.499Z,71.71
2018-01-01T21:14:10.010Z,71.58
2018-01-01T21:16:36.430Z,71.35
2018-01-01T21:19:02.980Z,71.34
2018-01-01T21:21:29.392Z,71.56
2018-01-01T21:23:55.788Z,71.58
2018-01-01T21:26:22.535Z,71.92
2018-01-01T21:28:49.059Z,71.37
2018-01-01T21:31:15.395Z,70.95
2018-01-01T21:33:41.853Z,71.40
2018-01-01T21:36:08.313Z,72.18
2018-01-01T21:38:34.764Z,72.22
2018-01-01T21:41:01.289Z,72.15
2018-01-01T21:43:27.681Z,71.94
2018-01-01T21:45:54.062Z,71.83
2018-01-01T21:48:20.550Z,71.70
2018-01-01T21:50:46.939Z,72.13
2018-01-01T21:53:13.368Z,71.87
2018-01-01T21:55:39.824Z,71.86
2018-01-01T21:58:06.211Z,72.29
2018-01-01T22:00:32.666Z,71.94
2018-01-01T22:02:59.159Z,72.12
2018-01-01T22:05:25.507Z,72.20
2018-01-01T22:07:51.907Z,72.02
2018-01-01T22:10:18.348Z,71.55
2018-01-01T22:12:44.728Z,71.30
2018-01-01T22:15:11.139Z,71.22
2018-01-01T22:17:37.572Z,71.47
2018-01-01T22:20:03.931Z,73.26
2018-01-01T22:22:30.320Z,74.35
2018-01-01T22:24:56.751Z,73.11
2018-01-01T22:27:23.112Z,72.09
2018-01-01T22:29:49.483Z,71.92
2018-01-01T22:32:15.912Z,72.08
2018-01-01T22:34:42.355Z,72.31
2018-01-01T22:37:08.731Z,73.15
2018-01-01T22:39:35.147Z,73.20
2018-01-01T22:42:01.527Z,73.54
2018-01-01T22:44:27.903Z,73.35
2018-01-01T22:46:54.378Z,73.39
2018-01-01T22:49:20.794Z,73.11
2018-01-01T22:51:47.219Z,72.62
2018-01-01T22:54:13.683Z,72.25
2018-01-01T22:56:40.087Z,73.12
2018-01-01T22:59:06.494Z,73.47
2018-01-01T23:01:32.916Z,72.83
2018-01-01T23:03:59.387Z,72.08
2018-01-01T23:06:25.751Z,72.13
2018-01-01T23:08:52.232Z,72.11
2018-01-01T23:11:18.627Z,72.06
2018-01-01T23:13:45.027Z,72.43
2018-01-01T23:16:11.548Z,72.63
2018-01-01T23:18:37.947Z,71.84
2018-01-01T23:21:04.403Z,71.32
2018-01-01T23:23:30.832Z,71.82
2018-01-01T23:25:57.209Z,71.96
2018-01-01T23:28:23.607Z,72.36
2018-01-01T23:30:50.054Z,71.75
2018-01-01T23:33:16.388Z,71.83
2018-01-01T23:35:42.753Z,71.02
2018-01-01T23:38:09.235Z,71.22
2018-01-01T23:40:35.584Z,71.50
2018-01-01T23:43:02.021Z,71.27
2018-01-01T23:45:28.486Z,71.52
2018-01-01T23:47:54.961Z,72.20
2018-01-01T23:50:21.352Z,72.56
2018-01-01T23:52:47.799Z,72.96
2018-01-01T23:55:14.212Z,72.33
2018-01-01T23:57:40.624Z,72.58
